sensor_id;sensor_type;location;lat;lon;timestamp;P1;durP1;ratioP1;P2;durP2;ratioP2
56381;SDS011;50261;51.150;4.470;2022-09-30T00:02:08;12.50;;;6.30;;
56381;SDS011;50261;51.150;4.470;2022-09-30T00:04:36;8.38;;;5.93;;
56381;SDS011;50261;51.150;4.470;2022-09-30T00:07:01;8.98;;;6.65;;
56381;SDS011;50261;51.150;4.470;2022-09-30T00:09:27;12.70;;;6.70;;
56381;SDS011;50261;51.150;4.470;2022-09-30T00:11:53;9.27;;;6.13;;
56381;SDS011;50261;51.150;4.470;2022-09-30T00:14:19;9.52;;;6.30;;
56381;SDS011;50261;51.150;4.470;2022-09-30T00:16:45;8.98;;;5.95;;
56381;SDS011;50261;51.150;4.470;2022-09-30T00:19:10;10.88;;;6.15;;
56381;SDS011;50261;51.150;4.470;2022-09-30T00:21:36;9.82;;;5.97;;
56381;SDS011;50261;51.150;4.470;2022-09-30T00:24:01;8.90;;;6.05;;
56381;SDS011;50261;51.150;4.470;2022-09-30T00:26:27;8.48;;;5.60;;
56381;SDS011;50261;51.150;4.470;2022-09-30T00:28:55;9.90;;;5.75;;
56381;SDS011;50261;51.150;4.470;2022-09-30T00:31:21;5.95;;;5.28;;
56381;SDS011;50261;51.150;4.470;2022-09-30T00:33:47;13.20;;;6.40;;
56381;SDS011;50261;51.150;4.470;2022-09-30T00:36:35;10.03;;;5.73;;
56381;SDS011;50261;51.150;4.470;2022-09-30T00:39:02;7.35;;;5.68;;
56381;SDS011;50261;51.150;4.470;2022-09-30T00:41:28;8.23;;;5.50;;
56381;SDS011;50261;51.150;4.470;2022-09-30T00:43:54;8.88;;;5.80;;
56381;SDS011;50261;51.150;4.470;2022-09-30T00:46:21;8.85;;;5.78;;
56381;SDS011;50261;51.150;4.470;2022-09-30T00:48:50;7.50;;;5.82;;
56381;SDS011;50261;51.150;4.470;2022-09-30T00:51:20;6.82;;;5.50;;
56381;SDS011;50261;51.150;4.470;2022-09-30T00:53:51;9.50;;;5.55;;
56381;SDS011;50261;51.150;4.470;2022-09-30T00:56:29;6.03;;;5.43;;
56381;SDS011;50261;51.150;4.470;2022-09-30T00:59:01;8.02;;;5.65;;
56381;SDS011;50261;51.150;4.470;2022-09-30T01:01:27;8.70;;;5.70;;
56381;SDS011;50261;51.150;4.470;2022-09-30T01:03:57;7.28;;;5.45;;
56381;SDS011;50261;51.150;4.470;2022-09-30T01:06:24;6.63;;;5.53;;
56381;SDS011;50261;51.150;4.470;2022-09-30T01:08:50;6.72;;;5.25;;
56381;SDS011;50261;51.150;4.470;2022-09-30T01:11:16;10.93;;;5.35;;
56381;SDS011;50261;51.150;4.470;2022-09-30T01:13:41;9.10;;;5.82;;
56381;SDS011;50261;51.150;4.470;2022-09-30T01:23:56;6.40;;;5.05;;
56381;SDS011;50261;51.150;4.470;2022-09-30T01:29:31;6.05;;;5.40;;
56381;SDS011;50261;51.150;4.470;2022-09-30T01:32:50;5.97;;;4.82;;
56381;SDS011;50261;51.150;4.470;2022-09-30T01:37:19;5.78;;;4.95;;
56381;SDS011;50261;51.150;4.470;2022-09-30T01:44:59;8.20;;;5.50;;
56381;SDS011;50261;51.150;4.470;2022-09-30T01:47:30;7.25;;;5.20;;
56381;SDS011;50261;51.150;4.470;2022-09-30T01:53:02;6.35;;;5.18;;
56381;SDS011;50261;51.150;4.470;2022-09-30T01:55:32;7.22;;;5.60;;
56381;SDS011;50261;51.150;4.470;2022-09-30T01:58:08;9.32;;;6.22;;
56381;SDS011;50261;51.150;4.470;2022-09-30T02:00:36;9.20;;;5.45;;
56381;SDS011;50261;51.150;4.470;2022-09-30T02:03:26;9.07;;;6.10;;
56381;SDS011;50261;51.150;4.470;2022-09-30T02:05:52;7.72;;;6.35;;
56381;SDS011;50261;51.150;4.470;2022-09-30T02:08:26;8.15;;;5.53;;
56381;SDS011;50261;51.150;4.470;2022-09-30T02:10:57;9.00;;;6.30;;
56381;SDS011;50261;51.150;4.470;2022-09-30T02:15:56;8.82;;;6.00;;
56381;SDS011;50261;51.150;4.470;2022-09-30T02:18:27;7.23;;;6.23;;
56381;SDS011;50261;51.150;4.470;2022-09-30T02:20:57;8.05;;;5.97;;
56381;SDS011;50261;51.150;4.470;2022-09-30T02:23:28;7.05;;;5.68;;
56381;SDS011;50261;51.150;4.470;2022-09-30T02:25:57;6.85;;;5.28;;
56381;SDS011;50261;51.150;4.470;2022-09-30T02:28:24;6.68;;;5.97;;
56381;SDS011;50261;51.150;4.470;2022-09-30T02:30:53;11.57;;;7.30;;
56381;SDS011;50261;51.150;4.470;2022-09-30T02:33:42;7.82;;;7.03;;
56381;SDS011;50261;51.150;4.470;2022-09-30T02:36:10;8.52;;;6.15;;
56381;SDS011;50261;51.150;4.470;2022-09-30T02:38:42;10.05;;;6.20;;
56381;SDS011;50261;51.150;4.470;2022-09-30T02:41:13;8.30;;;6.20;;
56381;SDS011;50261;51.150;4.470;2022-09-30T02:43:39;7.57;;;6.10;;
56381;SDS011;50261;51.150;4.470;2022-09-30T02:46:09;11.00;;;6.18;;
56381;SDS011;50261;51.150;4.470;2022-09-30T02:56:25;6.18;;;5.55;;
56381;SDS011;50261;51.150;4.470;2022-09-30T02:58:52;8.00;;;5.82;;
56381;SDS011;50261;51.150;4.470;2022-09-30T03:01:20;8.98;;;6.00;;
56381;SDS011;50261;51.150;4.470;2022-09-30T03:03:49;9.32;;;6.50;;
56381;SDS011;50261;51.150;4.470;2022-09-30T03:06:16;7.22;;;6.18;;
56381;SDS011;50261;51.150;4.470;2022-09-30T03:08:42;8.73;;;5.95;;
56381;SDS011;50261;51.150;4.470;2022-09-30T03:11:10;9.00;;;6.75;;
56381;SDS011;50261;51.150;4.470;2022-09-30T03:16:18;9.73;;;5.97;;
56381;SDS011;50261;51.150;4.470;2022-09-30T03:18:52;11.70;;;6.85;;
56381;SDS011;50261;51.150;4.470;2022-09-30T03:31:29;9.98;;;6.88;;
56381;SDS011;50261;51.150;4.470;2022-09-30T03:34:09;11.10;;;7.70;;
56381;SDS011;50261;51.150;4.470;2022-09-30T03:41:47;9.30;;;7.93;;
56381;SDS011;50261;51.150;4.470;2022-09-30T03:44:19;9.13;;;6.20;;
56381;SDS011;50261;51.150;4.470;2022-09-30T03:46:50;12.38;;;7.68;;
56381;SDS011;50261;51.150;4.470;2022-09-30T03:49:21;11.02;;;7.47;;
56381;SDS011;50261;51.150;4.470;2022-09-30T03:51:47;11.63;;;7.07;;
56381;SDS011;50261;51.150;4.470;2022-09-30T03:54:13;8.38;;;6.57;;
56381;SDS011;50261;51.150;4.470;2022-09-30T03:56:38;9.88;;;7.20;;
56381;SDS011;50261;51.150;4.470;2022-09-30T03:59:25;12.30;;;7.18;;
56381;SDS011;50261;51.150;4.470;2022-09-30T04:01:52;11.25;;;8.45;;
56381;SDS011;50261;51.150;4.470;2022-09-30T04:04:18;13.27;;;9.48;;
56381;SDS011;50261;51.150;4.470;2022-09-30T04:06:44;12.38;;;8.88;;
56381;SDS011;50261;51.150;4.470;2022-09-30T04:09:09;11.82;;;7.78;;
56381;SDS011;50261;51.150;4.470;2022-09-30T04:11:35;9.02;;;7.32;;
56381;SDS011;50261;51.150;4.470;2022-09-30T04:14:01;10.27;;;8.18;;
56381;SDS011;50261;51.150;4.470;2022-09-30T04:16:29;11.43;;;8.73;;
56381;SDS011;50261;51.150;4.470;2022-09-30T04:18:55;12.50;;;8.68;;
56381;SDS011;50261;51.150;4.470;2022-09-30T04:21:23;9.30;;;7.88;;
56381;SDS011;50261;51.150;4.470;2022-09-30T04:23:49;11.20;;;8.10;;
56381;SDS011;50261;51.150;4.470;2022-09-30T04:26:15;11.48;;;7.93;;
56381;SDS011;50261;51.150;4.470;2022-09-30T04:28:41;9.77;;;8.38;;
56381;SDS011;50261;51.150;4.470;2022-09-30T04:31:06;13.00;;;8.05;;
56381;SDS011;50261;51.150;4.470;2022-09-30T04:33:32;12.57;;;8.27;;
56381;SDS011;50261;51.150;4.470;2022-09-30T04:35:58;9.77;;;8.15;;
56381;SDS011;50261;51.150;4.470;2022-09-30T04:38:24;9.70;;;8.20;;
56381;SDS011;50261;51.150;4.470;2022-09-30T04:40:50;14.00;;;9.68;;
56381;SDS011;50261;51.150;4.470;2022-09-30T04:43:16;13.98;;;10.32;;
56381;SDS011;50261;51.150;4.470;2022-09-30T04:45:43;10.75;;;9.05;;
56381;SDS011;50261;51.150;4.470;2022-09-30T04:48:09;10.95;;;8.23;;
56381;SDS011;50261;51.150;4.470;2022-09-30T04:50:34;11.15;;;9.43;;
56381;SDS011;50261;51.150;4.470;2022-09-30T04:53:00;12.57;;;9.15;;
56381;SDS011;50261;51.150;4.470;2022-09-30T04:55:28;13.07;;;10.00;;
56381;SDS011;50261;51.150;4.470;2022-09-30T04:57:53;13.02;;;9.15;;
56381;SDS011;50261;51.150;4.470;2022-09-30T05:00:19;11.30;;;9.10;;
56381;SDS011;50261;51.150;4.470;2022-09-30T05:02:45;11.13;;;8.35;;
56381;SDS011;50261;51.150;4.470;2022-09-30T05:05:10;13.48;;;10.10;;
56381;SDS011;50261;51.150;4.470;2022-09-30T05:07:35;11.88;;;9.75;;
56381;SDS011;50261;51.150;4.470;2022-09-30T05:10:01;18.65;;;10.65;;
56381;SDS011;50261;51.150;4.470;2022-09-30T05:12:26;12.75;;;10.77;;
56381;SDS011;50261;51.150;4.470;2022-09-30T05:14:52;14.73;;;10.90;;
56381;SDS011;50261;51.150;4.470;2022-09-30T05:17:17;15.32;;;11.70;;
56381;SDS011;50261;51.150;4.470;2022-09-30T05:19:43;15.05;;;10.93;;
56381;SDS011;50261;51.150;4.470;2022-09-30T05:22:08;11.80;;;10.38;;
56381;SDS011;50261;51.150;4.470;2022-09-30T05:24:33;15.13;;;10.32;;
56381;SDS011;50261;51.150;4.470;2022-09-30T05:27:00;14.18;;;10.80;;
56381;SDS011;50261;51.150;4.470;2022-09-30T05:29:26;15.43;;;12.38;;
56381;SDS011;50261;51.150;4.470;2022-09-30T05:31:51;16.48;;;11.60;;
56381;SDS011;50261;51.150;4.470;2022-09-30T05:34:17;18.08;;;11.70;;
56381;SDS011;50261;51.150;4.470;2022-09-30T05:36:43;20.63;;;12.60;;
56381;SDS011;50261;51.150;4.470;2022-09-30T05:39:09;18.02;;;12.40;;
56381;SDS011;50261;51.150;4.470;2022-09-30T05:41:35;14.07;;;11.27;;
56381;SDS011;50261;51.150;4.470;2022-09-30T05:44:00;15.27;;;11.80;;
56381;SDS011;50261;51.150;4.470;2022-09-30T05:46:27;21.08;;;12.05;;
56381;SDS011;50261;51.150;4.470;2022-09-30T05:48:53;17.20;;;11.57;;
56381;SDS011;50261;51.150;4.470;2022-09-30T05:51:21;16.75;;;12.30;;
56381;SDS011;50261;51.150;4.470;2022-09-30T05:53:47;16.05;;;11.80;;
56381;SDS011;50261;51.150;4.470;2022-09-30T05:56:12;14.85;;;11.85;;
56381;SDS011;50261;51.150;4.470;2022-09-30T05:58:38;16.25;;;12.32;;
56381;SDS011;50261;51.150;4.470;2022-09-30T06:01:08;14.48;;;11.10;;
56381;SDS011;50261;51.150;4.470;2022-09-30T06:03:34;18.10;;;10.85;;
56381;SDS011;50261;51.150;4.470;2022-09-30T06:05:59;19.88;;;11.82;;
56381;SDS011;50261;51.150;4.470;2022-09-30T06:08:25;15.25;;;11.45;;
56381;SDS011;50261;51.150;4.470;2022-09-30T06:10:51;21.10;;;15.27;;
56381;SDS011;50261;51.150;4.470;2022-09-30T06:13:16;15.60;;;12.25;;
56381;SDS011;50261;51.150;4.470;2022-09-30T06:15:42;17.95;;;12.65;;
56381;SDS011;50261;51.150;4.470;2022-09-30T06:18:08;16.83;;;12.50;;
56381;SDS011;50261;51.150;4.470;2022-09-30T06:20:37;16.58;;;12.13;;
56381;SDS011;50261;51.150;4.470;2022-09-30T06:23:03;20.40;;;12.80;;
56381;SDS011;50261;51.150;4.470;2022-09-30T06:25:29;19.05;;;12.02;;
56381;SDS011;50261;51.150;4.470;2022-09-30T06:27:55;18.10;;;13.90;;
56381;SDS011;50261;51.150;4.470;2022-09-30T06:30:21;16.25;;;13.38;;
56381;SDS011;50261;51.150;4.470;2022-09-30T06:32:47;19.58;;;13.57;;
56381;SDS011;50261;51.150;4.470;2022-09-30T06:35:13;21.95;;;13.93;;
56381;SDS011;50261;51.150;4.470;2022-09-30T06:37:38;19.75;;;14.15;;
56381;SDS011;50261;51.150;4.470;2022-09-30T06:40:06;19.48;;;14.82;;
56381;SDS011;50261;51.150;4.470;2022-09-30T06:42:32;23.05;;;14.98;;
56381;SDS011;50261;51.150;4.470;2022-09-30T06:44:58;21.35;;;15.35;;
56381;SDS011;50261;51.150;4.470;2022-09-30T06:47:24;22.77;;;15.10;;
56381;SDS011;50261;51.150;4.470;2022-09-30T06:49:50;18.73;;;14.68;;
56381;SDS011;50261;51.150;4.470;2022-09-30T06:52:17;19.15;;;15.93;;
56381;SDS011;50261;51.150;4.470;2022-09-30T06:54:44;19.85;;;16.50;;
56381;SDS011;50261;51.150;4.470;2022-09-30T06:57:11;21.80;;;15.45;;
56381;SDS011;50261;51.150;4.470;2022-09-30T06:59:37;18.52;;;15.82;;
56381;SDS011;50261;51.150;4.470;2022-09-30T07:02:03;20.00;;;15.07;;
56381;SDS011;50261;51.150;4.470;2022-09-30T07:04:29;18.58;;;15.45;;
56381;SDS011;50261;51.150;4.470;2022-09-30T07:06:55;19.67;;;16.08;;
56381;SDS011;50261;51.150;4.470;2022-09-30T07:09:20;18.10;;;16.17;;
56381;SDS011;50261;51.150;4.470;2022-09-30T07:11:46;22.70;;;17.08;;
56381;SDS011;50261;51.150;4.470;2022-09-30T07:14:13;23.52;;;16.17;;
56381;SDS011;50261;51.150;4.470;2022-09-30T07:16:39;19.73;;;16.30;;
56381;SDS011;50261;51.150;4.470;2022-09-30T07:19:05;19.83;;;15.68;;
56381;SDS011;50261;51.150;4.470;2022-09-30T07:21:31;18.33;;;15.70;;
56381;SDS011;50261;51.150;4.470;2022-09-30T07:23:57;21.95;;;16.67;;
56381;SDS011;50261;51.150;4.470;2022-09-30T07:26:24;26.98;;;17.23;;
56381;SDS011;50261;51.150;4.470;2022-09-30T07:28:51;18.95;;;16.88;;
56381;SDS011;50261;51.150;4.470;2022-09-30T07:31:21;19.75;;;15.90;;
56381;SDS011;50261;51.150;4.470;2022-09-30T07:33:47;24.27;;;16.88;;
56381;SDS011;50261;51.150;4.470;2022-09-30T07:36:15;24.25;;;18.05;;
56381;SDS011;50261;51.150;4.470;2022-09-30T07:38:43;24.40;;;17.90;;
56381;SDS011;50261;51.150;4.470;2022-09-30T07:41:11;23.20;;;17.17;;
56381;SDS011;50261;51.150;4.470;2022-09-30T07:43:38;20.45;;;17.48;;
56381;SDS011;50261;51.150;4.470;2022-09-30T07:46:05;21.58;;;17.05;;
56381;SDS011;50261;51.150;4.470;2022-09-30T07:48:31;25.38;;;18.17;;
56381;SDS011;50261;51.150;4.470;2022-09-30T07:51:03;19.85;;;16.67;;
56381;SDS011;50261;51.150;4.470;2022-09-30T07:53:29;21.63;;;17.80;;
56381;SDS011;50261;51.150;4.470;2022-09-30T07:55:55;25.05;;;18.88;;
56381;SDS011;50261;51.150;4.470;2022-09-30T07:58:21;22.83;;;18.02;;
56381;SDS011;50261;51.150;4.470;2022-09-30T08:00:47;23.02;;;18.73;;
56381;SDS011;50261;51.150;4.470;2022-09-30T08:03:16;21.40;;;16.95;;
56381;SDS011;50261;51.150;4.470;2022-09-30T08:05:41;28.30;;;18.85;;
56381;SDS011;50261;51.150;4.470;2022-09-30T08:08:13;22.92;;;18.17;;
56381;SDS011;50261;51.150;4.470;2022-09-30T08:10:39;22.27;;;17.15;;
56381;SDS011;50261;51.150;4.470;2022-09-30T08:13:04;29.00;;;18.10;;
56381;SDS011;50261;51.150;4.470;2022-09-30T08:15:30;25.70;;;17.45;;
56381;SDS011;50261;51.150;4.470;2022-09-30T08:17:56;22.23;;;17.17;;
56381;SDS011;50261;51.150;4.470;2022-09-30T08:20:22;23.80;;;18.05;;
56381;SDS011;50261;51.150;4.470;2022-09-30T08:22:51;23.88;;;16.83;;
56381;SDS011;50261;51.150;4.470;2022-09-30T08:25:16;21.67;;;17.67;;
56381;SDS011;50261;51.150;4.470;2022-09-30T08:27:42;29.10;;;17.00;;
56381;SDS011;50261;51.150;4.470;2022-09-30T08:30:08;20.42;;;17.10;;
56381;SDS011;50261;51.150;4.470;2022-09-30T08:32:34;19.45;;;16.85;;
56381;SDS011;50261;51.150;4.470;2022-09-30T08:35:00;22.40;;;17.00;;
56381;SDS011;50261;51.150;4.470;2022-09-30T08:37:25;20.25;;;15.73;;
56381;SDS011;50261;51.150;4.470;2022-09-30T08:39:51;20.73;;;16.90;;
56381;SDS011;50261;51.150;4.470;2022-09-30T08:45:36;18.58;;;14.38;;
56381;SDS011;50261;51.150;4.470;2022-09-30T08:48:06;20.00;;;14.73;;
56381;SDS011;50261;51.150;4.470;2022-09-30T08:53:24;18.80;;;15.00;;
56381;SDS011;50261;51.150;4.470;2022-09-30T08:55:50;19.92;;;14.52;;
56381;SDS011;50261;51.150;4.470;2022-09-30T09:01:04;17.67;;;12.70;;
56381;SDS011;50261;51.150;4.470;2022-09-30T09:03:31;16.58;;;12.40;;
56381;SDS011;50261;51.150;4.470;2022-09-30T09:06:01;18.30;;;12.38;;
56381;SDS011;50261;51.150;4.470;2022-09-30T09:11:40;14.43;;;11.95;;
56381;SDS011;50261;51.150;4.470;2022-09-30T09:13:52;12.90;;;10.95;;
56381;SDS011;50261;51.150;4.470;2022-09-30T09:16:30;15.00;;;10.77;;
56381;SDS011;50261;51.150;4.470;2022-09-30T09:19:17;14.40;;;10.77;;
56381;SDS011;50261;51.150;4.470;2022-09-30T09:21:48;18.73;;;10.32;;
56381;SDS011;50261;51.150;4.470;2022-09-30T09:24:20;20.05;;;10.30;;
56381;SDS011;50261;51.150;4.470;2022-09-30T09:26:46;12.15;;;9.00;;
56381;SDS011;50261;51.150;4.470;2022-09-30T09:31:44;12.45;;;7.40;;
56381;SDS011;50261;51.150;4.470;2022-09-30T09:34:12;11.43;;;7.10;;
56381;SDS011;50261;51.150;4.470;2022-09-30T09:36:45;9.55;;;7.07;;
56381;SDS011;50261;51.150;4.470;2022-09-30T09:46:45;12.23;;;6.75;;
56381;SDS011;50261;51.150;4.470;2022-09-30T09:54:22;7.90;;;4.97;;
56381;SDS011;50261;51.150;4.470;2022-09-30T09:56:49;8.27;;;4.57;;
56381;SDS011;50261;51.150;4.470;2022-09-30T09:59:17;8.02;;;4.32;;
56381;SDS011;50261;51.150;4.470;2022-09-30T10:01:44;6.93;;;3.90;;
56381;SDS011;50261;51.150;4.470;2022-09-30T10:04:12;9.05;;;4.15;;
56381;SDS011;50261;51.150;4.470;2022-09-30T10:06:44;7.22;;;3.38;;
56381;SDS011;50261;51.150;4.470;2022-09-30T10:09:23;7.55;;;3.67;;
56381;SDS011;50261;51.150;4.470;2022-09-30T10:11:51;4.53;;;3.33;;
56381;SDS011;50261;51.150;4.470;2022-09-30T10:17:02;6.85;;;3.60;;
56381;SDS011;50261;51.150;4.470;2022-09-30T10:19:28;5.03;;;2.70;;
56381;SDS011;50261;51.150;4.470;2022-09-30T10:24:32;5.20;;;2.65;;
56381;SDS011;50261;51.150;4.470;2022-09-30T10:26:58;6.47;;;2.83;;
56381;SDS011;50261;51.150;4.470;2022-09-30T10:29:26;5.82;;;3.10;;
56381;SDS011;50261;51.150;4.470;2022-09-30T10:31:52;3.85;;;3.17;;
56381;SDS011;50261;51.150;4.470;2022-09-30T10:34:28;7.38;;;3.47;;
56381;SDS011;50261;51.150;4.470;2022-09-30T10:36:55;5.40;;;3.17;;
56381;SDS011;50261;51.150;4.470;2022-09-30T10:39:25;7.40;;;3.42;;
56381;SDS011;50261;51.150;4.470;2022-09-30T10:44:44;5.78;;;3.30;;
56381;SDS011;50261;51.150;4.470;2022-09-30T10:47:18;6.95;;;3.15;;
56381;SDS011;50261;51.150;4.470;2022-09-30T10:49:54;6.95;;;3.40;;
56381;SDS011;50261;51.150;4.470;2022-09-30T10:54:56;5.93;;;3.40;;
56381;SDS011;50261;51.150;4.470;2022-09-30T10:59:56;7.70;;;3.13;;
56381;SDS011;50261;51.150;4.470;2022-09-30T11:02:28;4.97;;;3.15;;
56381;SDS011;50261;51.150;4.470;2022-09-30T11:05:16;7.90;;;3.35;;
56381;SDS011;50261;51.150;4.470;2022-09-30T11:15:37;3.33;;;2.25;;
56381;SDS011;50261;51.150;4.470;2022-09-30T11:20:47;6.00;;;3.17;;
56381;SDS011;50261;51.150;4.470;2022-09-30T11:23:19;4.78;;;2.70;;
56381;SDS011;50261;51.150;4.470;2022-09-30T11:25:56;9.93;;;2.97;;
56381;SDS011;50261;51.150;4.470;2022-09-30T11:33:48;3.38;;;2.58;;
56381;SDS011;50261;51.150;4.470;2022-09-30T11:46:33;5.05;;;2.53;;
56381;SDS011;50261;51.150;4.470;2022-09-30T11:51:31;3.92;;;2.42;;
56381;SDS011;50261;51.150;4.470;2022-09-30T11:57:18;3.80;;;2.50;;
56381;SDS011;50261;51.150;4.470;2022-09-30T12:02:28;5.70;;;2.80;;
56381;SDS011;50261;51.150;4.470;2022-09-30T12:04:56;4.72;;;3.00;;
56381;SDS011;50261;51.150;4.470;2022-09-30T12:07:34;4.90;;;2.95;;
56381;SDS011;50261;51.150;4.470;2022-09-30T12:10:45;8.38;;;3.67;;
56381;SDS011;50261;51.150;4.470;2022-09-30T12:13:10;4.68;;;2.80;;
56381;SDS011;50261;51.150;4.470;2022-09-30T12:15:38;4.40;;;2.92;;
56381;SDS011;50261;51.150;4.470;2022-09-30T12:18:08;5.07;;;3.20;;
56381;SDS011;50261;51.150;4.470;2022-09-30T12:20:36;4.22;;;2.58;;
56381;SDS011;50261;51.150;4.470;2022-09-30T12:23:40;5.95;;;2.72;;
56381;SDS011;50261;51.150;4.470;2022-09-30T12:25:58;4.57;;;2.70;;
56381;SDS011;50261;51.150;4.470;2022-09-30T12:28:39;6.80;;;3.50;;
56381;SDS011;50261;51.150;4.470;2022-09-30T12:36:44;7.40;;;3.88;;
56381;SDS011;50261;51.150;4.470;2022-09-30T12:44:47;3.85;;;3.00;;
56381;SDS011;50261;51.150;4.470;2022-09-30T12:49:52;5.47;;;2.80;;
56381;SDS011;50261;51.150;4.470;2022-09-30T12:52:20;4.40;;;3.30;;
56381;SDS011;50261;51.150;4.470;2022-09-30T12:54:56;4.97;;;3.17;;
56381;SDS011;50261;51.150;4.470;2022-09-30T12:57:23;4.75;;;2.85;;
56381;SDS011;50261;51.150;4.470;2022-09-30T12:59:51;7.07;;;3.08;;
56381;SDS011;50261;51.150;4.470;2022-09-30T13:02:35;5.40;;;2.47;;
56381;SDS011;50261;51.150;4.470;2022-09-30T13:10:32;4.00;;;2.83;;
56381;SDS011;50261;51.150;4.470;2022-09-30T13:18:53;4.28;;;2.60;;
56381;SDS011;50261;51.150;4.470;2022-09-30T13:21:15;3.97;;;2.38;;
56381;SDS011;50261;51.150;4.470;2022-09-30T13:23:43;5.45;;;2.83;;
56381;SDS011;50261;51.150;4.470;2022-09-30T13:31:24;4.97;;;3.08;;
56381;SDS011;50261;51.150;4.470;2022-09-30T13:37:25;5.53;;;2.78;;
56381;SDS011;50261;51.150;4.470;2022-09-30T13:39:19;4.35;;;3.15;;
56381;SDS011;50261;51.150;4.470;2022-09-30T13:44:18;7.93;;;4.30;;
56381;SDS011;50261;51.150;4.470;2022-09-30T13:46:50;5.82;;;3.08;;
56381;SDS011;50261;51.150;4.470;2022-09-30T13:51:47;5.95;;;3.30;;
56381;SDS011;50261;51.150;4.470;2022-09-30T13:54:31;3.33;;;2.20;;
56381;SDS011;50261;51.150;4.470;2022-09-30T13:57:01;5.65;;;2.92;;
56381;SDS011;50261;51.150;4.470;2022-09-30T14:02:00;3.22;;;2.53;;
56381;SDS011;50261;51.150;4.470;2022-09-30T14:12:12;3.28;;;2.63;;
56381;SDS011;50261;51.150;4.470;2022-09-30T14:15:42;5.43;;;3.00;;
56381;SDS011;50261;51.150;4.470;2022-09-30T14:17:39;4.30;;;2.90;;
56381;SDS011;50261;51.150;4.470;2022-09-30T14:22:45;7.20;;;2.75;;
56381;SDS011;50261;51.150;4.470;2022-09-30T14:25:13;4.68;;;2.70;;
56381;SDS011;50261;51.150;4.470;2022-09-30T14:30:21;2.63;;;1.85;;
56381;SDS011;50261;51.150;4.470;2022-09-30T14:33:00;2.65;;;1.70;;
56381;SDS011;50261;51.150;4.470;2022-09-30T14:35:28;2.33;;;1.65;;
56381;SDS011;50261;51.150;4.470;2022-09-30T14:37:58;7.55;;;2.20;;
56381;SDS011;50261;51.150;4.470;2022-09-30T14:40:27;5.30;;;1.83;;
56381;SDS011;50261;51.150;4.470;2022-09-30T14:42:54;4.88;;;2.35;;
56381;SDS011;50261;51.150;4.470;2022-09-30T14:45:26;4.97;;;2.05;;
56381;SDS011;50261;51.150;4.470;2022-09-30T14:47:54;4.95;;;2.10;;
56381;SDS011;50261;51.150;4.470;2022-09-30T14:50:22;4.85;;;2.35;;
56381;SDS011;50261;51.150;4.470;2022-09-30T14:52:50;5.68;;;2.17;;
56381;SDS011;50261;51.150;4.470;2022-09-30T14:55:24;4.97;;;2.13;;
56381;SDS011;50261;51.150;4.470;2022-09-30T14:57:52;4.35;;;1.58;;
56381;SDS011;50261;51.150;4.470;2022-09-30T15:00:20;4.28;;;1.67;;
56381;SDS011;50261;51.150;4.470;2022-09-30T15:02:47;6.45;;;2.30;;
56381;SDS011;50261;51.150;4.470;2022-09-30T15:05:14;5.38;;;2.30;;
56381;SDS011;50261;51.150;4.470;2022-09-30T15:07:40;6.47;;;2.40;;
56381;SDS011;50261;51.150;4.470;2022-09-30T15:10:13;2.70;;;2.15;;
56381;SDS011;50261;51.150;4.470;2022-09-30T15:12:41;6.07;;;2.33;;
56381;SDS011;50261;51.150;4.470;2022-09-30T15:17:48;2.30;;;2.03;;
56381;SDS011;50261;51.150;4.470;2022-09-30T15:20:37;4.25;;;2.00;;
56381;SDS011;50261;51.150;4.470;2022-09-30T15:23:02;7.30;;;2.20;;
56381;SDS011;50261;51.150;4.470;2022-09-30T15:25:31;4.93;;;2.38;;
56381;SDS011;50261;51.150;4.470;2022-09-30T15:27:57;2.13;;;1.73;;
56381;SDS011;50261;51.150;4.470;2022-09-30T15:30:25;4.53;;;2.15;;
56381;SDS011;50261;51.150;4.470;2022-09-30T15:33:00;4.30;;;2.10;;
56381;SDS011;50261;51.150;4.470;2022-09-30T15:35:26;5.20;;;2.40;;
56381;SDS011;50261;51.150;4.470;2022-09-30T15:37:52;6.10;;;2.50;;
56381;SDS011;50261;51.150;4.470;2022-09-30T15:40:18;4.10;;;2.45;;
56381;SDS011;50261;51.150;4.470;2022-09-30T15:43:07;3.45;;;1.92;;
56381;SDS011;50261;51.150;4.470;2022-09-30T15:45:39;7.07;;;2.08;;
56381;SDS011;50261;51.150;4.470;2022-09-30T15:50:51;4.00;;;2.03;;
56381;SDS011;50261;51.150;4.470;2022-09-30T15:53:18;4.35;;;2.00;;
56381;SDS011;50261;51.150;4.470;2022-09-30T15:55:45;4.25;;;1.90;;
56381;SDS011;50261;51.150;4.470;2022-09-30T16:00:50;3.85;;;1.95;;
56381;SDS011;50261;51.150;4.470;2022-09-30T16:05:43;5.97;;;2.40;;
56381;SDS011;50261;51.150;4.470;2022-09-30T16:08:09;4.90;;;1.75;;
56381;SDS011;50261;51.150;4.470;2022-09-30T16:10:35;2.83;;;1.90;;
56381;SDS011;50261;51.150;4.470;2022-09-30T16:13:02;5.82;;;1.98;;
56381;SDS011;50261;51.150;4.470;2022-09-30T16:15:29;4.43;;;1.60;;
56381;SDS011;50261;51.150;4.470;2022-09-30T16:17:54;3.55;;;1.90;;
56381;SDS011;50261;51.150;4.470;2022-09-30T16:20:23;2.97;;;1.85;;
56381;SDS011;50261;51.150;4.470;2022-09-30T16:22:50;4.93;;;1.98;;
56381;SDS011;50261;51.150;4.470;2022-09-30T16:25:31;3.05;;;1.70;;
56381;SDS011;50261;51.150;4.470;2022-09-30T16:28:01;4.10;;;1.60;;
56381;SDS011;50261;51.150;4.470;2022-09-30T16:30:33;7.82;;;1.80;;
56381;SDS011;50261;51.150;4.470;2022-09-30T16:33:01;2.78;;;1.63;;
56381;SDS011;50261;51.150;4.470;2022-09-30T16:35:28;4.43;;;1.55;;
56381;SDS011;50261;51.150;4.470;2022-09-30T16:37:58;5.13;;;1.75;;
56381;SDS011;50261;51.150;4.470;2022-09-30T16:40:25;4.40;;;1.83;;
56381;SDS011;50261;51.150;4.470;2022-09-30T16:42:51;4.80;;;1.98;;
56381;SDS011;50261;51.150;4.470;2022-09-30T16:45:19;3.40;;;1.80;;
56381;SDS011;50261;51.150;4.470;2022-09-30T16:47:45;5.25;;;1.58;;
56381;SDS011;50261;51.150;4.470;2022-09-30T16:50:22;4.28;;;1.65;;
56381;SDS011;50261;51.150;4.470;2022-09-30T16:52:48;3.75;;;1.85;;
56381;SDS011;50261;51.150;4.470;2022-09-30T16:55:14;3.13;;;2.30;;
56381;SDS011;50261;51.150;4.470;2022-09-30T16:57:40;6.20;;;2.50;;
56381;SDS011;50261;51.150;4.470;2022-09-30T17:00:05;5.15;;;2.20;;
56381;SDS011;50261;51.150;4.470;2022-09-30T17:02:32;2.63;;;2.00;;
56381;SDS011;50261;51.150;4.470;2022-09-30T17:04:57;4.15;;;2.33;;
56381;SDS011;50261;51.150;4.470;2022-09-30T17:07:23;4.05;;;1.92;;
56381;SDS011;50261;51.150;4.470;2022-09-30T17:10:07;4.65;;;2.13;;
56381;SDS011;50261;51.150;4.470;2022-09-30T17:12:34;5.88;;;2.38;;
56381;SDS011;50261;51.150;4.470;2022-09-30T17:15:00;2.10;;;1.90;;
56381;SDS011;50261;51.150;4.470;2022-09-30T17:17:26;5.07;;;2.10;;
56381;SDS011;50261;51.150;4.470;2022-09-30T17:19:58;3.03;;;1.88;;
56381;SDS011;50261;51.150;4.470;2022-09-30T17:22:24;4.32;;;2.28;;
56381;SDS011;50261;51.150;4.470;2022-09-30T17:24:49;5.00;;;2.10;;
56381;SDS011;50261;51.150;4.470;2022-09-30T17:27:16;3.55;;;1.83;;
56381;SDS011;50261;51.150;4.470;2022-09-30T17:29:42;2.22;;;1.90;;
56381;SDS011;50261;51.150;4.470;2022-09-30T17:32:08;4.25;;;2.05;;
56381;SDS011;50261;51.150;4.470;2022-09-30T17:34:33;4.10;;;2.10;;
56381;SDS011;50261;51.150;4.470;2022-09-30T17:36:59;4.30;;;1.98;;
56381;SDS011;50261;51.150;4.470;2022-09-30T17:39:25;4.82;;;2.17;;
56381;SDS011;50261;51.150;4.470;2022-09-30T17:41:52;3.28;;;2.25;;
56381;SDS011;50261;51.150;4.470;2022-09-30T17:47:03;2.45;;;1.83;;
56381;SDS011;50261;51.150;4.470;2022-09-30T17:49:29;3.42;;;2.00;;
56381;SDS011;50261;51.150;4.470;2022-09-30T17:51:55;3.47;;;1.90;;
56381;SDS011;50261;51.150;4.470;2022-09-30T17:54:21;3.47;;;2.13;;
56381;SDS011;50261;51.150;4.470;2022-09-30T17:56:47;2.90;;;2.33;;
56381;SDS011;50261;51.150;4.470;2022-09-30T17:59:13;5.88;;;2.00;;